Portada
METAR-TAF:

METAR-TAF

Aeroports :

Nadi, Fiji

latitud: 17-45S, longitud: 177-27E, altitud: 13 m

Observació

L'informe es va fer fa 47 minuts, a les 02:00 UTC
Vent 12 kt del Nord-Oest
Temperatura 28°C
Humitat 66%
Pressió 1013 hPa
Visibilitat 10 km o més
Núvols disperses a una alçada de 2800 ft, Cumulus congestus.
Núvols disperses a una alçada de 4800 ft

METAR: NFFN 190200Z 32012KT 9999 SCT028TCU SCT048 28/21 Q1013 NOSIG

Hora: 14:47 (02:47 UTC)

Pronòstic

L'informe es va fer fa 3 hores i 55 minuts, a les 22:52 UTC
Pronòstic vàlid del 19 a les 00 UTC al 19 a les 24 UTC
Vent 10 kt del Oest
Visibilitat 10 km o més
Núvols disperses a una alçada de 2800 ft
Evolucionant progressivament
l' 19 a les 04 UTC al 19 a les 06 UTC
Vent 6 kt del Est/Sud-Est
Evolucionant progressivament
l' 19 a les 22 UTC al 19 a les 24 UTC
Vent 10 kt del Oest

TAF: NFFN 182252Z 1900/1924 26010KT 9999 SCT028 BECMG 1904/1906 11006KT BECMG 1922/1924 28010KT

Observacions i pronòstics meteorològics de més de 4000 aeroports (METAR i TAF).

Les estacions disponibles són els punts grocs i vermells al mapa.

Posi el ratolí al punt desitjat per veure el nom de l'estació.

Feu clic per veure les observacions i els pronòstics meteorològics.

Per canviar el mapa: feu clic els botons verds amb una creu de color negre per apropar; al botó verd amb un guió per allunyar la imatge; o en les fletxes verdes per a mapes adjacents.


METAR-TAF: